Time;durP1;ratioP1;P1;durP2;ratioP2;P2;SDS_P1;SDS_P2;PMS_P1;PMS_P2;Temp;Humidity;BMP_temperature;BMP_pressure;BME280_temperature;BME280_humidity;BME280_pressure;Samples;Min_cycle;Max_cycle;Signal;HPM_P1;HPM_P2
2023/06/07 00:00:11;;;;;;;;;;;;;;;10.86;87.94;102045.63;4991979;28;19921;-75
2023/06/07 00:02:41;;;;;;;;;;;;;;;11.14;87.42;102044.78;5015811;28;19925;-74
2023/06/07 00:05:07;;;;;;;;;;;;;;;11.01;87.50;102047.75;5006549;28;20067;-77
2023/06/07 00:07:35;;;;;;;;;;;;;;;11.10;87.22;102057.03;5025024;28;19996;-75
2023/06/07 00:10:04;;;;;;;;;;;;;;;11.14;87.02;102049.34;4986525;28;19924;-76
2023/06/07 00:12:29;;;;;;;;;;;;;;;11.24;86.71;102057.53;4989270;28;19921;-77
2023/06/07 00:14:55;;;;;;;;;;;;;;;11.15;86.79;102056.31;5021733;28;20295;-77
2023/06/07 00:17:20;;;;;;;;;;;;;;;11.24;86.62;102051.38;5003322;28;19921;-77
2023/06/07 00:19:46;;;;;;;;;;;;;;;11.26;86.32;102051.97;5016339;28;19920;-73
2023/06/07 00:22:12;;;;;;;;;;;;;;;11.43;85.60;102050.09;4992982;28;19928;-74
2023/06/07 00:24:38;;;;;;;;;;;;;;;11.44;85.13;102052.53;4985282;28;19928;-75
2023/06/07 00:27:04;;;;;;;;;;;;;;;11.42;85.17;102053.84;4994809;28;19953;-77
2023/06/07 00:29:30;;;;;;;;;;;;;;;11.33;85.49;102044.56;4994631;28;19976;-77
2023/06/07 00:31:56;;;;;;;;;;;;;;;11.35;84.90;102043.25;4989594;28;19956;-77
2023/06/07 00:34:22;;;;;;;;;;;;;;;11.24;85.48;102041.47;4973704;28;19987;-76
2023/06/07 00:36:47;;;;;;;;;;;;;;;11.45;84.44;102050.69;4987629;28;19940;-77
2023/06/07 00:39:13;;;;;;;;;;;;;;;11.60;83.37;102040.19;4977105;28;19927;-76
2023/06/07 00:41:39;;;;;;;;;;;;;;;11.55;83.44;102048.16;4996543;28;20275;-76
2023/06/07 00:44:05;;;;;;;;;;;;;;;11.39;83.97;102048.97;4984534;28;19925;-78
2023/06/07 00:46:32;;;;;;;;;;;;;;;11.32;84.66;102051.00;4988880;28;19932;-77
2023/06/07 00:48:57;;;;;;;;;;;;;;;11.28;85.00;102042.59;4994016;28;20301;-75
2023/06/07 00:51:23;;;;;;;;;;;;;;;11.21;84.74;102042.75;5007916;28;19917;-76
2023/06/07 00:53:49;;;;;;;;;;;;;;;11.30;84.43;102040.50;4989324;28;19928;-77
2023/06/07 00:56:15;;;;;;;;;;;;;;;11.30;84.38;102039.69;4986786;28;19925;-75
2023/06/07 00:58:43;;;;;;;;;;;;;;;11.21;84.93;102042.75;4994435;28;19925;-76
2023/06/07 01:01:09;;;;;;;;;;;;;;;11.43;83.77;102036.69;4988463;28;19921;-77
2023/06/07 01:03:35;;;;;;;;;;;;;;;11.25;84.87;102042.28;5007527;28;19921;-78
2023/06/07 01:06:03;;;;;;;;;;;;;;;11.07;85.35;102036.09;5010409;28;19921;-77
2023/06/07 01:08:30;;;;;;;;;;;;;;;11.13;85.11;102040.47;5009087;28;19932;-76
2023/06/07 01:10:57;;;;;;;;;;;;;;;11.23;85.00;102039.03;5019964;28;19928;-77
2023/06/07 01:13:22;;;;;;;;;;;;;;;11.17;85.24;102035.44;5007173;28;19925;-77
2023/06/07 01:15:48;;;;;;;;;;;;;;;10.99;85.63;102041.84;5004530;28;20394;-76
2023/06/07 01:18:14;;;;;;;;;;;;;;;10.93;85.75;102040.13;4979558;28;19921;-76
2023/06/07 01:20:43;;;;;;;;;;;;;;;10.76;86.31;102040.06;5016749;28;20615;-78
2023/06/07 01:23:12;;;;;;;;;;;;;;;10.75;86.49;102040.31;4992536;28;19975;-76
2023/06/07 01:25:38;;;;;;;;;;;;;;;10.63;86.89;102035.81;5010346;28;20000;-76
2023/06/07 01:28:05;;;;;;;;;;;;;;;10.49;87.72;102039.78;5007965;28;20358;-77
2023/06/07 01:30:32;;;;;;;;;;;;;;;10.61;87.67;102037.91;5014168;28;19963;-76
2023/06/07 01:32:58;;;;;;;;;;;;;;;10.57;87.35;102038.63;4993733;28;19922;-76
2023/06/07 01:35:27;;;;;;;;;;;;;;;10.63;87.63;102040.34;4994481;28;19921;-75
2023/06/07 01:37:54;;;;;;;;;;;;;;;10.59;87.57;102031.97;5007257;28;19933;-76
2023/06/07 01:40:22;;;;;;;;;;;;;;;10.46;87.71;102034.94;4987570;28;19921;-77
2023/06/07 01:42:48;;;;;;;;;;;;;;;10.66;87.41;102038.00;4998200;28;19927;-76
2023/06/07 01:45:14;;;;;;;;;;;;;;;10.71;87.12;102036.50;4988804;28;20402;-77
2023/06/07 01:47:42;;;;;;;;;;;;;;;10.65;87.11;102025.66;5003513;28;19925;-77
2023/06/07 01:50:09;;;;;;;;;;;;;;;10.78;86.77;102034.47;4990520;28;19928;-76
2023/06/07 01:52:37;;;;;;;;;;;;;;;10.83;86.37;102029.19;5010212;28;19928;-76
2023/06/07 01:55:05;;;;;;;;;;;;;;;10.83;86.28;102027.31;5005358;28;19917;-78
2023/06/07 01:57:32;;;;;;;;;;;;;;;10.72;86.84;102030.88;4989944;28;19921;-77
2023/06/07 02:00:17;;;;;;;;;;;;;;;10.74;86.78;102030.63;4981435;28;19923;-77
2023/06/07 02:02:51;;;;;;;;;;;;;;;10.68;86.64;102031.59;5024012;28;20415;-76
2023/06/07 02:05:25;;;;;;;;;;;;;;;10.56;87.38;102024.41;4965604;28;19921;-77
2023/06/07 02:07:53;;;;;;;;;;;;;;;10.48;87.72;102027.47;4999316;28;19925;-78
2023/06/07 02:10:26;;;;;;;;;;;;;;;10.45;87.81;102027.94;4995792;28;19971;-77
2023/06/07 02:12:52;;;;;;;;;;;;;;;10.46;87.98;102029.56;4985552;28;19925;-79
2023/06/07 02:15:18;;;;;;;;;;;;;;;10.48;87.60;102032.81;4994170;28;19921;-78
2023/06/07 02:17:48;;;;;;;;;;;;;;;10.60;87.21;102024.75;5015049;28;19921;-77
2023/06/07 02:20:16;;;;;;;;;;;;;;;10.29;88.08;102018.75;4994335;28;20310;-78
2023/06/07 02:22:42;;;;;;;;;;;;;;;10.44;87.68;102020.16;5000719;28;20003;-78
2023/06/07 02:25:08;;;;;;;;;;;;;;;10.39;87.97;102019.00;4987939;28;20386;-77
2023/06/07 02:27:34;;;;;;;;;;;;;;;10.42;88.07;102017.69;5012512;28;19921;-79
2023/06/07 02:30:00;;;;;;;;;;;;;;;10.35;88.39;102020.50;5018603;28;19921;-77
2023/06/07 02:32:26;;;;;;;;;;;;;;;10.38;88.09;102024.59;5004130;28;20098;-77
2023/06/07 02:34:51;;;;;;;;;;;;;;;10.20;88.58;102014.00;4983863;28;20374;-77
2023/06/07 02:37:17;;;;;;;;;;;;;;;10.32;88.50;102009.47;4990274;28;20389;-77
2023/06/07 02:39:43;;;;;;;;;;;;;;;10.25;88.46;102011.47;4980123;28;19924;-77
2023/06/07 02:42:08;;;;;;;;;;;;;;;10.13;88.94;102014.13;4991574;28;19963;-77
2023/06/07 02:44:34;;;;;;;;;;;;;;;9.90;89.41;102025.69;4980258;28;20018;-77
2023/06/07 02:47:00;;;;;;;;;;;;;;;10.23;89.76;102026.94;5004051;28;19928;-77
2023/06/07 02:49:25;;;;;;;;;;;;;;;10.03;89.63;102022.75;5012357;28;19979;-77
2023/06/07 02:51:52;;;;;;;;;;;;;;;10.00;89.87;102025.88;5006867;28;19972;-77
2023/06/07 02:54:19;;;;;;;;;;;;;;;9.94;89.80;102021.47;5019186;28;19983;-77
2023/06/07 02:56:45;;;;;;;;;;;;;;;9.98;90.33;102017.28;5018990;28;19927;-77
2023/06/07 02:59:10;;;;;;;;;;;;;;;9.79;90.17;102027.28;4969203;28;20011;-77
2023/06/07 03:01:40;;;;;;;;;;;;;;;9.98;90.56;102029.84;5003505;28;19978;-77
2023/06/07 03:04:06;;;;;;;;;;;;;;;9.98;90.08;102028.00;5003904;28;20008;-77
2023/06/07 03:06:33;;;;;;;;;;;;;;;10.06;90.39;102024.13;5007500;28;20512;-75
2023/06/07 03:09:08;;;;;;;;;;;;;;;9.94;90.31;102029.50;5013512;28;20397;-75
2023/06/07 03:11:36;;;;;;;;;;;;;;;10.01;90.08;102027.50;5020383;28;19921;-75
2023/06/07 03:14:04;;;;;;;;;;;;;;;9.88;90.28;102030.44;5031792;28;19921;-73
2023/06/07 03:16:37;;;;;;;;;;;;;;;10.06;89.97;102035.66;5013187;28;19917;-76
2023/06/07 03:19:04;;;;;;;;;;;;;;;9.85;89.89;102028.22;5014038;28;19924;-77
2023/06/07 03:21:30;;;;;;;;;;;;;;;9.93;90.33;102025.19;5006213;28;20005;-75
2023/06/07 03:24:00;;;;;;;;;;;;;;;10.00;90.28;102025.06;4996544;28;19928;-75
2023/06/07 03:26:26;;;;;;;;;;;;;;;9.95;90.67;102025.75;4998226;28;19999;-75
2023/06/07 03:28:54;;;;;;;;;;;;;;;10.01;90.77;102027.50;4999704;28;20003;-76
2023/06/07 03:31:25;;;;;;;;;;;;;;;9.98;90.37;102025.31;5008670;28;19917;-74
2023/06/07 03:33:56;;;;;;;;;;;;;;;10.03;90.50;102022.75;5000413;28;19921;-76
2023/06/07 03:36:25;;;;;;;;;;;;;;;9.95;90.37;102033.78;4991177;28;19975;-76
2023/06/07 03:38:53;;;;;;;;;;;;;;;9.91;90.65;102031.84;4994977;28;20000;-76
2023/06/07 03:41:20;;;;;;;;;;;;;;;10.06;90.76;102046.38;5020732;28;19925;-76
2023/06/07 03:43:45;;;;;;;;;;;;;;;9.94;90.73;102037.53;4995315;28;19928;-76
2023/06/07 03:46:11;;;;;;;;;;;;;;;9.97;91.03;102037.06;4984012;28;19925;-75
2023/06/07 03:48:40;;;;;;;;;;;;;;;10.04;91.10;102036.94;4989079;28;20115;-75
2023/06/07 03:51:06;;;;;;;;;;;;;;;10.08;91.01;102033.56;4991411;28;20023;-75
2023/06/07 03:53:32;;;;;;;;;;;;;;;10.18;90.34;102032.16;4995607;28;19964;-76
2023/06/07 03:55:59;;;;;;;;;;;;;;;10.28;90.21;102035.88;4996283;28;19974;-76
2023/06/07 03:58:26;;;;;;;;;;;;;;;10.35;89.60;102028.53;4991999;28;20015;-75
2023/06/07 04:00:52;;;;;;;;;;;;;;;10.38;89.92;102037.97;4994259;28;20043;-77
2023/06/07 04:03:28;;;;;;;;;;;;;;;10.54;89.36;102033.72;4986921;28;20377;-76
2023/06/07 04:05:56;;;;;;;;;;;;;;;10.55;89.42;102033.50;4994150;28;20300;-77
2023/06/07 04:08:22;;;;;;;;;;;;;;;10.73;88.32;102029.03;5002649;28;19947;-76
2023/06/07 04:10:48;;;;;;;;;;;;;;;10.74;88.25;102025.28;5032469;28;20370;-76
2023/06/07 04:13:14;;;;;;;;;;;;;;;10.74;88.63;102023.41;4994518;28;19921;-77
2023/06/07 04:15:40;;;;;;;;;;;;;;;10.77;88.25;102022.94;5011342;28;19944;-76
2023/06/07 04:18:06;;;;;;;;;;;;;;;10.80;87.99;102024.31;4987979;28;19929;-79
2023/06/07 04:20:32;;;;;;;;;;;;;;;10.80;87.86;102025.13;5011747;28;19921;-77
2023/06/07 04:23:00;;;;;;;;;;;;;;;10.85;87.97;102027.09;5006635;28;20402;-77
2023/06/07 04:25:31;;;;;;;;;;;;;;;10.95;87.58;102027.28;4995860;28;19921;-76
2023/06/07 04:27:59;;;;;;;;;;;;;;;10.98;87.22;102028.69;4979438;28;20004;-77
2023/06/07 04:30:34;;;;;;;;;;;;;;;11.10;87.24;102029.41;4996310;28;19925;-76
2023/06/07 04:33:03;;;;;;;;;;;;;;;11.15;86.58;102027.63;4994145;28;19972;-75
2023/06/07 04:35:31;;;;;;;;;;;;;;;11.13;86.62;102023.59;4994608;28;19928;-76
2023/06/07 04:38:01;;;;;;;;;;;;;;;11.15;86.35;102026.84;5005602;28;19936;-74
2023/06/07 04:40:28;;;;;;;;;;;;;;;11.26;86.18;102033.19;4984708;28;19930;-77
2023/06/07 04:42:55;;;;;;;;;;;;;;;11.25;86.29;102026.22;5007582;28;19921;-78
2023/06/07 04:45:31;;;;;;;;;;;;;;;11.24;86.41;102021.88;4978397;28;19921;-75
2023/06/07 04:47:58;;;;;;;;;;;;;;;11.39;86.06;102024.84;5007998;28;19922;-76
2023/06/07 04:50:24;;;;;;;;;;;;;;;11.51;85.04;102025.53;4989823;28;19929;-76
2023/06/07 04:52:50;;;;;;;;;;;;;;;11.64;84.81;102025.22;5000437;28;19925;-76
2023/06/07 04:55:17;;;;;;;;;;;;;;;11.68;84.43;102029.03;4995045;28;19921;-77
2023/06/07 04:57:45;;;;;;;;;;;;;;;11.59;83.84;102027.84;5014169;28;19921;-77
2023/06/07 05:00:13;;;;;;;;;;;;;;;11.62;84.35;102024.66;5003572;28;19949;-77
2023/06/07 05:02:44;;;;;;;;;;;;;;;11.83;84.03;102022.31;5022975;28;20008;-77
2023/06/07 05:05:13;;;;;;;;;;;;;;;11.95;83.35;102023.00;4990038;28;19928;-75
2023/06/07 05:07:42;;;;;;;;;;;;;;;11.92;83.52;102020.81;4994398;28;19925;-75
2023/06/07 05:10:08;;;;;;;;;;;;;;;11.94;82.71;102034.81;5011028;28;20287;-75
2023/06/07 05:12:33;;;;;;;;;;;;;;;12.09;81.89;102036.91;5012579;28;20421;-76
2023/06/07 05:14:59;;;;;;;;;;;;;;;12.08;82.34;102033.41;4989462;28;20271;-75
2023/06/07 05:17:28;;;;;;;;;;;;;;;12.18;82.41;102030.84;4993285;28;19921;-76
2023/06/07 05:20:13;;;;;;;;;;;;;;;12.23;82.33;102038.16;5015131;28;19921;-76
2023/06/07 05:22:39;;;;;;;;;;;;;;;12.43;80.90;102041.09;4983447;28;19921;-75
2023/06/07 05:25:06;;;;;;;;;;;;;;;12.57;80.81;102045.03;5010244;28;19928;-76
2023/06/07 05:27:32;;;;;;;;;;;;;;;12.53;80.64;102040.41;4976585;28;20032;-76
2023/06/07 05:41:51;;;;;;;;;;;;;;;13.11;78.58;102039.69;5021961;28;19928;-76
2023/06/07 05:44:16;;;;;;;;;;;;;;;13.27;78.45;102040.66;5012512;28;19929;-76
2023/06/07 05:46:42;;;;;;;;;;;;;;;13.19;77.95;102051.03;4972636;28;19925;-77
2023/06/07 05:49:08;;;;;;;;;;;;;;;13.24;77.04;102037.69;4994209;28;20299;-75
2023/06/07 05:51:34;;;;;;;;;;;;;;;13.41;77.54;102032.16;5029190;28;19968;-76
2023/06/07 05:54:00;;;;;;;;;;;;;;;13.56;76.74;102040.38;5016549;28;19944;-76
2023/06/07 05:56:27;;;;;;;;;;;;;;;13.85;76.21;102038.13;5029208;28;19921;-75
2023/06/07 05:58:53;;;;;;;;;;;;;;;13.84;76.11;102045.41;5011553;28;19960;-75
2023/06/07 06:01:19;;;;;;;;;;;;;;;13.74;75.63;102048.03;4993918;28;19924;-75
2023/06/07 06:03:44;;;;;;;;;;;;;;;13.96;74.80;102042.53;5010261;28;19917;-76
2023/06/07 06:06:16;;;;;;;;;;;;;;;14.02;74.09;102048.72;4995442;28;20023;-77
2023/06/07 06:08:42;;;;;;;;;;;;;;;13.89;74.37;102045.44;4988710;28;19967;-76
2023/06/07 06:11:12;;;;;;;;;;;;;;;13.92;73.64;102047.59;4993314;28;19964;-76
2023/06/07 06:13:38;;;;;;;;;;;;;;;14.22;72.85;102043.44;4988588;28;19921;-76
2023/06/07 06:16:04;;;;;;;;;;;;;;;14.41;72.06;102057.28;5007769;28;19921;-76
2023/06/07 06:18:29;;;;;;;;;;;;;;;14.26;73.09;102054.53;5030899;28;19921;-76
2023/06/07 06:20:55;;;;;;;;;;;;;;;14.28;72.04;102055.88;5014973;28;19964;-76
2023/06/07 06:23:20;;;;;;;;;;;;;;;14.45;71.80;102051.13;5011391;28;19968;-77
2023/06/07 06:25:46;;;;;;;;;;;;;;;14.37;71.46;102062.41;4991097;28;20251;-76
2023/06/07 06:28:12;;;;;;;;;;;;;;;14.62;70.99;102050.91;5018056;28;20341;-76
2023/06/07 06:30:37;;;;;;;;;;;;;;;14.62;70.79;102060.91;5023555;28;19917;-76
2023/06/07 06:33:03;;;;;;;;;;;;;;;14.68;70.61;102062.53;4998622;28;19917;-78
2023/06/07 06:35:32;;;;;;;;;;;;;;;14.58;69.76;102063.34;4996679;28;19921;-76
2023/06/07 06:37:58;;;;;;;;;;;;;;;14.81;70.04;102062.03;5001454;28;20023;-76
2023/06/07 06:40:24;;;;;;;;;;;;;;;15.20;69.46;102064.28;5005552;28;20398;-76
2023/06/07 06:42:49;;;;;;;;;;;;;;;15.22;68.17;102072.91;4998721;28;19918;-74
2023/06/07 06:45:35;;;;;;;;;;;;;;;15.33;68.04;102065.66;5016973;28;19921;-74
2023/06/07 06:48:04;;;;;;;;;;;;;;;15.69;67.27;102072.69;5015055;28;19957;-74
2023/06/07 06:50:30;;;;;;;;;;;;;;;15.23;66.53;102075.34;5004286;28;20316;-75
2023/06/07 06:52:55;;;;;;;;;;;;;;;15.35;66.72;102067.00;5004697;28;19925;-76
2023/06/07 06:55:21;;;;;;;;;;;;;;;15.54;67.05;102073.47;4990140;28;19917;-77
2023/06/07 06:57:47;;;;;;;;;;;;;;;15.93;65.22;102072.13;5007233;28;20544;-78
2023/06/07 07:00:12;;;;;;;;;;;;;;;15.92;64.01;102065.06;5011753;28;19921;-76
2023/06/07 07:02:38;;;;;;;;;;;;;;;15.96;64.13;102069.66;5028496;28;19924;-77
2023/06/07 07:05:06;;;;;;;;;;;;;;;15.81;63.86;102067.00;5000735;28;20382;-76
2023/06/07 07:07:34;;;;;;;;;;;;;;;16.24;63.58;102067.44;5014148;28;20038;-79
2023/06/07 07:10:00;;;;;;;;;;;;;;;16.07;63.20;102065.06;4999746;28;19917;-74
2023/06/07 07:12:26;;;;;;;;;;;;;;;16.05;63.92;102065.34;4997216;28;19976;-76
2023/06/07 07:14:52;;;;;;;;;;;;;;;15.99;63.12;102071.03;4996618;28;19921;-76
2023/06/07 07:17:20;;;;;;;;;;;;;;;16.37;63.56;102066.84;4992657;28;20044;-74
2023/06/07 07:19:46;;;;;;;;;;;;;;;16.32;64.00;102064.16;4986753;28;19925;-77
2023/06/07 07:22:12;;;;;;;;;;;;;;;16.46;62.39;102059.81;4994151;28;19986;-75
2023/06/07 07:24:37;;;;;;;;;;;;;;;16.80;61.83;102065.34;5006549;28;19921;-75
2023/06/07 07:27:03;;;;;;;;;;;;;;;16.95;61.20;102069.06;4979903;28;19925;-78
2023/06/07 07:29:28;;;;;;;;;;;;;;;17.26;61.50;102066.94;4996423;28;19917;-77
2023/06/07 07:31:58;;;;;;;;;;;;;;;16.68;60.65;102069.44;5011880;28;19995;-75
2023/06/07 07:34:23;;;;;;;;;;;;;;;16.48;61.65;102068.44;5012719;28;20007;-75
2023/06/07 07:36:50;;;;;;;;;;;;;;;16.71;60.93;102060.78;5011766;28;19981;-75
2023/06/07 07:39:15;;;;;;;;;;;;;;;16.64;62.03;102066.47;4981596;28;19928;-80
2023/06/07 07:41:41;;;;;;;;;;;;;;;16.97;61.86;102072.28;4989099;28;20302;-76
2023/06/07 07:44:07;;;;;;;;;;;;;;;16.98;61.10;102077.41;5002388;28;20512;-77
2023/06/07 07:46:33;;;;;;;;;;;;;;;17.33;60.62;102075.53;5005843;28;19921;-77
2023/06/07 07:48:58;;;;;;;;;;;;;;;17.48;59.40;102072.72;4973924;28;19917;-76
2023/06/07 07:51:24;;;;;;;;;;;;;;;17.66;58.32;102065.78;4995421;28;19917;-76
2023/06/07 07:53:52;;;;;;;;;;;;;;;17.47;57.95;102068.38;5000903;28;19921;-76
2023/06/07 07:56:17;;;;;;;;;;;;;;;17.54;59.35;102076.97;5004911;28;20282;-76
2023/06/07 07:58:47;;;;;;;;;;;;;;;17.90;57.26;102074.00;5016443;28;19921;-75
2023/06/07 08:01:13;;;;;;;;;;;;;;;17.90;59.09;102077.50;4992991;28;20391;-75
2023/06/07 08:03:38;;;;;;;;;;;;;;;18.01;57.61;102070.06;5009540;28;20372;-75
2023/06/07 08:06:05;;;;;;;;;;;;;;;18.49;56.59;102068.19;5026433;28;19921;-77
2023/06/07 08:08:31;;;;;;;;;;;;;;;18.26;56.19;102072.50;4991081;28;19925;-75
2023/06/07 08:10:57;;;;;;;;;;;;;;;18.72;56.53;102069.25;4995903;28;20010;-75
2023/06/07 08:13:22;;;;;;;;;;;;;;;18.41;56.90;102073.41;4993344;28;20374;-75
2023/06/07 08:15:48;;;;;;;;;;;;;;;18.29;55.58;102068.44;4994660;28;19957;-77
2023/06/07 08:18:15;;;;;;;;;;;;;;;18.29;55.95;102071.13;5009828;28;19920;-75
2023/06/07 08:20:41;;;;;;;;;;;;;;;18.35;55.87;102067.25;5007956;28;20032;-75
2023/06/07 08:23:06;;;;;;;;;;;;;;;18.71;54.54;102070.34;4993121;28;20008;-77
2023/06/07 08:25:32;;;;;;;;;;;;;;;18.84;54.59;102068.03;4992613;28;19933;-75
2023/06/07 08:27:58;;;;;;;;;;;;;;;19.00;54.00;102061.25;5017252;28;19957;-79
2023/06/07 08:30:24;;;;;;;;;;;;;;;19.10;53.51;102066.53;4988527;28;20512;-75
2023/06/07 08:32:50;;;;;;;;;;;;;;;19.09;53.11;102068.44;4994736;28;19929;-77
2023/06/07 08:35:16;;;;;;;;;;;;;;;19.21;53.35;102076.13;5007135;28;19975;-79
2023/06/07 08:37:41;;;;;;;;;;;;;;;18.83;52.46;102072.63;5011100;28;20298;-77
2023/06/07 08:40:08;;;;;;;;;;;;;;;19.07;52.23;102065.22;5010060;28;19922;-78
2023/06/07 08:42:34;;;;;;;;;;;;;;;19.27;52.40;102071.44;4987732;28;19928;-79
2023/06/07 08:45:00;;;;;;;;;;;;;;;19.34;51.54;102071.88;4987254;28;19921;-79
2023/06/07 08:47:27;;;;;;;;;;;;;;;19.58;51.26;102069.88;5004781;28;20067;-79
2023/06/07 08:49:57;;;;;;;;;;;;;;;19.82;49.22;102072.41;5003379;28;19921;-79
2023/06/07 08:52:23;;;;;;;;;;;;;;;19.65;50.75;102066.78;4990245;28;20016;-77
2023/06/07 08:54:49;;;;;;;;;;;;;;;20.00;50.25;102068.03;4989147;28;20061;-76
2023/06/07 08:57:18;;;;;;;;;;;;;;;19.65;49.42;102072.19;5006204;28;20004;-79
2023/06/07 08:59:50;;;;;;;;;;;;;;;19.81;49.40;102073.53;4997450;28;19996;-76
2023/06/07 09:02:16;;;;;;;;;;;;;;;20.02;49.08;102060.38;4995586;28;19921;-78
2023/06/07 09:04:43;;;;;;;;;;;;;;;20.45;48.80;102060.06;4997849;28;19925;-79
2023/06/07 09:07:09;;;;;;;;;;;;;;;20.54;48.08;102060.19;4987086;28;19921;-78
2023/06/07 09:09:35;;;;;;;;;;;;;;;20.63;48.69;102063.78;4989452;28;20000;-78
2023/06/07 09:12:01;;;;;;;;;;;;;;;20.48;48.44;102066.84;4982026;28;19996;-76
2023/06/07 09:14:29;;;;;;;;;;;;;;;20.47;48.48;102059.78;4996391;28;19929;-80
2023/06/07 09:16:55;;;;;;;;;;;;;;;20.93;47.50;102059.56;5000078;28;19926;-77
2023/06/07 09:19:37;;;;;;;;;;;;;;;21.38;47.13;102052.25;5011232;28;19925;-77
2023/06/07 09:22:03;;;;;;;;;;;;;;;21.09;47.08;102055.38;5002518;28;19947;-77
2023/06/07 09:24:36;;;;;;;;;;;;;;;21.09;48.20;102049.94;5009458;28;19917;-77
2023/06/07 09:27:03;;;;;;;;;;;;;;;21.29;47.97;102056.84;5007266;28;19929;-79
2023/06/07 09:29:29;;;;;;;;;;;;;;;22.19;46.11;102053.94;5018065;28;19928;-77
2023/06/07 09:31:56;;;;;;;;;;;;;;;21.27;46.53;102056.31;4997237;28;19921;-77
2023/06/07 09:34:21;;;;;;;;;;;;;;;21.53;46.85;102056.50;5009979;28;20780;-77
2023/06/07 09:36:51;;;;;;;;;;;;;;;21.74;46.44;102059.50;4998591;28;20599;-79
2023/06/07 09:39:24;;;;;;;;;;;;;;;22.04;45.07;102053.22;5029929;28;19920;-79
2023/06/07 09:41:51;;;;;;;;;;;;;;;22.62;45.26;102056.75;5015040;28;19949;-79
2023/06/07 09:44:28;;;;;;;;;;;;;;;22.96;44.26;102055.19;5015499;28;19922;-77
2023/06/07 09:46:55;;;;;;;;;;;;;;;22.27;45.97;102051.22;5011452;28;19932;-77
2023/06/07 09:49:34;;;;;;;;;;;;;;;21.99;45.64;102044.38;5009695;28;19921;-79
2023/06/07 09:52:03;;;;;;;;;;;;;;;23.09;46.56;102043.31;5017369;28;19920;-76
2023/06/07 09:54:42;;;;;;;;;;;;;;;22.75;43.62;102052.28;5010327;28;20016;-77
2023/06/07 09:57:08;;;;;;;;;;;;;;;22.58;44.11;102045.69;5014754;28;19917;-77
2023/06/07 09:59:37;;;;;;;;;;;;;;;23.06;43.91;102044.75;5000954;28;19921;-78
2023/06/07 10:02:26;;;;;;;;;;;;;;;22.82;43.14;102053.41;4994570;28;19918;-77
2023/06/07 10:04:55;;;;;;;;;;;;;;;23.35;44.68;102046.00;4997618;28;19921;-75
2023/06/07 10:07:22;;;;;;;;;;;;;;;23.79;42.72;102054.94;5015299;28;19952;-79
2023/06/07 10:09:56;;;;;;;;;;;;;;;23.06;42.17;102050.22;5032558;28;19921;-76
2023/06/07 10:12:23;;;;;;;;;;;;;;;23.29;43.89;102041.81;5010383;28;19960;-75
2023/06/07 10:14:51;;;;;;;;;;;;;;;23.44;42.17;102049.53;5010264;28;19926;-77
2023/06/07 10:17:20;;;;;;;;;;;;;;;23.97;41.59;102050.97;5027463;28;19968;-76
2023/06/07 10:19:48;;;;;;;;;;;;;;;23.83;40.79;102050.38;4995382;28;19925;-75
2023/06/07 10:22:16;;;;;;;;;;;;;;;23.68;42.06;102041.59;5015062;28;19921;-76
2023/06/07 10:24:54;;;;;;;;;;;;;;;23.75;42.37;102045.75;4992797;28;20032;-77
2023/06/07 10:27:22;;;;;;;;;;;;;;;24.28;41.02;102038.91;4993436;28;19922;-75
2023/06/07 10:30:02;;;;;;;;;;;;;;;24.45;41.32;102038.81;4998894;28;19924;-75
2023/06/07 10:32:34;;;;;;;;;;;;;;;24.02;41.17;102041.78;5004216;28;19931;-76
2023/06/07 10:35:00;;;;;;;;;;;;;;;24.51;40.41;102032.81;5004850;28;19917;-76
2023/06/07 10:37:30;;;;;;;;;;;;;;;25.14;42.10;102027.34;5001179;28;19928;-75
2023/06/07 10:39:57;;;;;;;;;;;;;;;24.36;40.56;102029.88;5000295;28;19925;-76
2023/06/07 10:42:23;;;;;;;;;;;;;;;24.82;40.38;102030.81;5018810;28;19921;-75
2023/06/07 10:44:49;;;;;;;;;;;;;;;25.01;39.40;102025.66;4996724;28;19917;-75
2023/06/07 10:47:20;;;;;;;;;;;;;;;24.95;40.07;102032.47;5021677;28;19932;-75
2023/06/07 10:49:46;;;;;;;;;;;;;;;25.36;41.06;102028.09;5022721;28;20004;-78
2023/06/07 10:52:14;;;;;;;;;;;;;;;25.18;40.00;102021.97;5007031;28;20373;-79
2023/06/07 10:54:41;;;;;;;;;;;;;;;24.87;40.63;102022.41;5015597;28;19998;-75
2023/06/07 10:57:07;;;;;;;;;;;;;;;25.21;39.57;102013.88;5011607;28;19925;-75
2023/06/07 10:59:33;;;;;;;;;;;;;;;24.70;41.02;102015.91;5024499;28;19929;-77
2023/06/07 11:02:17;;;;;;;;;;;;;;;24.70;41.89;102018.66;4992927;28;19976;-75
2023/06/07 11:04:59;;;;;;;;;;;;;;;24.98;40.54;102012.63;4983404;28;19929;-78
2023/06/07 11:07:30;;;;;;;;;;;;;;;24.80;40.48;102001.03;5003464;28;20478;-78
2023/06/07 11:10:05;;;;;;;;;;;;;;;25.10;40.01;101996.25;5011364;28;19956;-76
2023/06/07 11:12:35;;;;;;;;;;;;;;;24.95;40.45;102007.81;4994780;28;19921;-76
2023/06/07 11:15:20;;;;;;;;;;;;;;;25.42;40.28;102011.06;5006723;28;21641;-75
2023/06/07 11:17:52;;;;;;;;;;;;;;;25.29;39.32;102007.50;5014386;28;19952;-77
2023/06/07 11:20:36;;;;;;;;;;;;;;;25.75;40.69;102002.81;4992514;28;19921;-76
2023/06/07 11:23:21;;;;;;;;;;;;;;;25.29;39.04;102004.75;5007425;28;19921;-75
2023/06/07 11:25:51;;;;;;;;;;;;;;;25.47;40.18;101999.88;4990187;28;20019;-75
2023/06/07 11:28:24;;;;;;;;;;;;;;;25.75;41.94;102002.81;4999002;28;19926;-75
2023/06/07 11:30:51;;;;;;;;;;;;;;;25.47;39.74;101994.41;5007805;28;20506;-74
2023/06/07 11:33:16;;;;;;;;;;;;;;;26.05;40.89;101994.31;5008798;28;19921;-76
2023/06/07 11:35:42;;;;;;;;;;;;;;;26.34;39.67;101995.97;4984745;28;19917;-76
2023/06/07 11:38:08;;;;;;;;;;;;;;;26.60;37.56;101985.41;5000621;28;20294;-76
2023/06/07 11:40:34;;;;;;;;;;;;;;;26.66;38.33;101994.22;4990240;28;19933;-76
2023/06/07 11:43:01;;;;;;;;;;;;;;;26.69;38.58;101990.78;5028471;28;19940;-77
2023/06/07 11:45:27;;;;;;;;;;;;;;;25.91;37.78;101993.88;5011215;28;19929;-77
2023/06/07 11:47:56;;;;;;;;;;;;;;;26.47;37.02;101996.78;4978700;28;19937;-75
2023/06/07 11:50:22;;;;;;;;;;;;;;;26.47;38.14;101994.03;5006210;28;19921;-75
2023/06/07 11:52:49;;;;;;;;;;;;;;;26.97;36.91;101988.03;5016984;28;19920;-76
2023/06/07 11:55:18;;;;;;;;;;;;;;;27.20;37.00;101988.25;5002053;28;20671;-77
2023/06/07 11:57:43;;;;;;;;;;;;;;;27.67;35.90;101981.97;5005824;28;19971;-75
2023/06/07 12:00:15;;;;;;;;;;;;;;;26.84;35.82;101976.28;5015400;28;19918;-77
2023/06/07 12:02:41;;;;;;;;;;;;;;;27.18;36.91;101982.31;4993452;28;19988;-75
2023/06/07 12:05:10;;;;;;;;;;;;;;;27.37;35.81;101970.63;5011441;28;19924;-76
2023/06/07 12:07:36;;;;;;;;;;;;;;;27.40;39.18;101975.41;5013273;28;19925;-75
2023/06/07 12:10:09;;;;;;;;;;;;;;;27.22;36.02;101980.44;4990384;28;19921;-76
2023/06/07 12:12:35;;;;;;;;;;;;;;;28.06;33.66;101968.34;5027220;28;19921;-77
2023/06/07 12:15:01;;;;;;;;;;;;;;;28.16;35.07;101967.78;5014372;28;20011;-78
2023/06/07 12:17:36;;;;;;;;;;;;;;;28.34;35.09;101969.00;5011570;28;20019;-77
2023/06/07 12:20:11;;;;;;;;;;;;;;;28.52;34.29;101972.94;4998415;28;19921;-77
2023/06/07 12:22:37;;;;;;;;;;;;;;;28.10;34.43;101974.72;4991570;28;19922;-76
2023/06/07 12:25:10;;;;;;;;;;;;;;;28.46;33.20;101971.63;5009183;28;20344;-76
2023/06/07 12:27:39;;;;;;;;;;;;;;;28.20;34.16;101968.66;5008647;28;20421;-77
2023/06/07 12:30:06;;;;;;;;;;;;;;;28.15;33.58;101966.97;4993546;28;19943;-77
2023/06/07 12:32:32;;;;;;;;;;;;;;;28.16;33.61;101967.78;5027190;28;19996;-76
2023/06/07 12:35:05;;;;;;;;;;;;;;;28.78;34.12;101971.44;4996594;28;19921;-78
2023/06/07 12:37:37;;;;;;;;;;;;;;;28.65;32.87;101968.03;4989544;28;19967;-77
2023/06/07 12:40:05;;;;;;;;;;;;;;;28.92;34.46;101963.47;4999645;28;19921;-74
2023/06/07 12:42:30;;;;;;;;;;;;;;;29.58;33.52;101959.50;4976445;28;19921;-76
2023/06/07 12:44:56;;;;;;;;;;;;;;;29.87;32.17;101954.41;4990747;28;20254;-76
2023/06/07 12:47:22;;;;;;;;;;;;;;;29.03;31.94;101961.72;4994016;28;19979;-75
2023/06/07 12:49:47;;;;;;;;;;;;;;;29.12;32.32;101963.44;5007080;28;19920;-77
2023/06/07 12:52:37;;;;;;;;;;;;;;;29.03;32.58;101953.44;5004149;28;19955;-75